sensor_id;sensor_type;location;lat;lon;timestamp;P1;durP1;ratioP1;P2;durP2;ratioP2
78916;SDS011;68315;48.608;11.436;2023-12-20T00:02:02;4.55;;;3.92;;
78916;SDS011;68315;48.608;11.436;2023-12-20T00:04:27;5.50;;;4.15;;
78916;SDS011;68315;48.608;11.436;2023-12-20T00:06:52;4.80;;;4.10;;
78916;SDS011;68315;48.608;11.436;2023-12-20T00:09:18;4.80;;;4.20;;
78916;SDS011;68315;48.608;11.436;2023-12-20T00:11:43;5.15;;;4.25;;
78916;SDS011;68315;48.608;11.436;2023-12-20T00:14:08;5.90;;;4.00;;
78916;SDS011;68315;48.608;11.436;2023-12-20T00:16:33;5.43;;;3.92;;
78916;SDS011;68315;48.608;11.436;2023-12-20T00:18:58;6.85;;;3.92;;
78916;SDS011;68315;48.608;11.436;2023-12-20T00:21:24;6.55;;;3.92;;
78916;SDS011;68315;48.608;11.436;2023-12-20T00:23:49;5.18;;;3.58;;
78916;SDS011;68315;48.608;11.436;2023-12-20T00:26:15;5.63;;;3.88;;
78916;SDS011;68315;48.608;11.436;2023-12-20T00:28:40;3.60;;;3.10;;
78916;SDS011;68315;48.608;11.436;2023-12-20T00:31:05;4.60;;;3.58;;
78916;SDS011;68315;48.608;11.436;2023-12-20T00:33:31;4.57;;;3.15;;
78916;SDS011;68315;48.608;11.436;2023-12-20T00:35:56;4.45;;;3.30;;
78916;SDS011;68315;48.608;11.436;2023-12-20T00:38:21;4.60;;;3.80;;
78916;SDS011;68315;48.608;11.436;2023-12-20T00:40:47;3.80;;;3.30;;
78916;SDS011;68315;48.608;11.436;2023-12-20T00:43:14;5.03;;;3.30;;
78916;SDS011;68315;48.608;11.436;2023-12-20T00:45:39;3.65;;;3.33;;
78916;SDS011;68315;48.608;11.436;2023-12-20T00:48:05;6.18;;;3.70;;
78916;SDS011;68315;48.608;11.436;2023-12-20T00:50:30;3.38;;;3.08;;
78916;SDS011;68315;48.608;11.436;2023-12-20T00:52:56;4.85;;;3.78;;
78916;SDS011;68315;48.608;11.436;2023-12-20T00:55:21;4.28;;;3.60;;
78916;SDS011;68315;48.608;11.436;2023-12-20T00:57:46;4.00;;;3.60;;
78916;SDS011;68315;48.608;11.436;2023-12-20T01:00:12;5.63;;;3.33;;
78916;SDS011;68315;48.608;11.436;2023-12-20T01:02:38;3.70;;;3.20;;
78916;SDS011;68315;48.608;11.436;2023-12-20T01:05:03;4.93;;;3.75;;
78916;SDS011;68315;48.608;11.436;2023-12-20T01:07:29;4.07;;;3.40;;
78916;SDS011;68315;48.608;11.436;2023-12-20T01:09:54;6.00;;;3.70;;
78916;SDS011;68315;48.608;11.436;2023-12-20T01:12:19;5.05;;;3.83;;
78916;SDS011;68315;48.608;11.436;2023-12-20T01:14:45;6.40;;;3.90;;
78916;SDS011;68315;48.608;11.436;2023-12-20T01:17:10;3.90;;;3.10;;
78916;SDS011;68315;48.608;11.436;2023-12-20T01:19:36;4.13;;;3.40;;
78916;SDS011;68315;48.608;11.436;2023-12-20T01:22:01;4.50;;;3.58;;
78916;SDS011;68315;48.608;11.436;2023-12-20T01:24:26;4.07;;;3.38;;
78916;SDS011;68315;48.608;11.436;2023-12-20T01:26:51;4.00;;;2.88;;
78916;SDS011;68315;48.608;11.436;2023-12-20T01:29:17;3.55;;;2.80;;
78916;SDS011;68315;48.608;11.436;2023-12-20T01:31:42;4.05;;;3.13;;
78916;SDS011;68315;48.608;11.436;2023-12-20T01:34:08;4.22;;;2.80;;
78916;SDS011;68315;48.608;11.436;2023-12-20T01:36:33;3.45;;;3.00;;
78916;SDS011;68315;48.608;11.436;2023-12-20T01:38:59;4.07;;;2.92;;
78916;SDS011;68315;48.608;11.436;2023-12-20T01:41:24;2.70;;;2.50;;
78916;SDS011;68315;48.608;11.436;2023-12-20T01:43:49;2.95;;;2.63;;
78916;SDS011;68315;48.608;11.436;2023-12-20T01:46:15;3.30;;;2.83;;
78916;SDS011;68315;48.608;11.436;2023-12-20T01:48:40;3.75;;;2.80;;
78916;SDS011;68315;48.608;11.436;2023-12-20T01:51:06;3.25;;;2.50;;
78916;SDS011;68315;48.608;11.436;2023-12-20T01:53:32;5.45;;;2.53;;
78916;SDS011;68315;48.608;11.436;2023-12-20T01:55:57;7.00;;;2.83;;
78916;SDS011;68315;48.608;11.436;2023-12-20T01:58:23;2.53;;;2.33;;
78916;SDS011;68315;48.608;11.436;2023-12-20T02:00:49;2.50;;;2.30;;
78916;SDS011;68315;48.608;11.436;2023-12-20T02:03:15;2.95;;;2.20;;
78916;SDS011;68315;48.608;11.436;2023-12-20T02:05:41;2.13;;;1.92;;
78916;SDS011;68315;48.608;11.436;2023-12-20T02:08:07;2.70;;;2.30;;
78916;SDS011;68315;48.608;11.436;2023-12-20T02:10:32;2.38;;;2.17;;
78916;SDS011;68315;48.608;11.436;2023-12-20T02:12:58;2.90;;;2.35;;
78916;SDS011;68315;48.608;11.436;2023-12-20T02:15:23;3.38;;;2.75;;
78916;SDS011;68315;48.608;11.436;2023-12-20T02:17:48;2.50;;;2.30;;
78916;SDS011;68315;48.608;11.436;2023-12-20T02:20:14;3.58;;;2.63;;
78916;SDS011;68315;48.608;11.436;2023-12-20T02:22:39;3.65;;;2.97;;
78916;SDS011;68315;48.608;11.436;2023-12-20T02:25:04;3.55;;;2.50;;
78916;SDS011;68315;48.608;11.436;2023-12-20T02:27:30;2.65;;;2.42;;
78916;SDS011;68315;48.608;11.436;2023-12-20T02:29:55;3.88;;;2.75;;
78916;SDS011;68315;48.608;11.436;2023-12-20T02:32:20;3.38;;;2.58;;
78916;SDS011;68315;48.608;11.436;2023-12-20T02:34:48;3.10;;;2.50;;
78916;SDS011;68315;48.608;11.436;2023-12-20T02:37:13;5.07;;;2.83;;
78916;SDS011;68315;48.608;11.436;2023-12-20T02:39:39;2.40;;;2.20;;
78916;SDS011;68315;48.608;11.436;2023-12-20T02:42:04;2.53;;;2.33;;
78916;SDS011;68315;48.608;11.436;2023-12-20T02:44:29;3.17;;;2.63;;
78916;SDS011;68315;48.608;11.436;2023-12-20T02:46:54;2.78;;;2.45;;
78916;SDS011;68315;48.608;11.436;2023-12-20T02:49:19;3.13;;;1.98;;
78916;SDS011;68315;48.608;11.436;2023-12-20T02:51:45;3.58;;;2.03;;
78916;SDS011;68315;48.608;11.436;2023-12-20T02:54:11;2.65;;;2.30;;
78916;SDS011;68315;48.608;11.436;2023-12-20T02:56:36;2.60;;;2.40;;
78916;SDS011;68315;48.608;11.436;2023-12-20T02:59:01;2.80;;;2.20;;
78916;SDS011;68315;48.608;11.436;2023-12-20T03:01:27;2.80;;;2.15;;
78916;SDS011;68315;48.608;11.436;2023-12-20T03:03:53;2.30;;;2.10;;
78916;SDS011;68315;48.608;11.436;2023-12-20T03:06:18;2.40;;;2.20;;
78916;SDS011;68315;48.608;11.436;2023-12-20T03:08:44;2.67;;;2.10;;
78916;SDS011;68315;48.608;11.436;2023-12-20T03:11:09;2.17;;;1.98;;
78916;SDS011;68315;48.608;11.436;2023-12-20T03:13:35;2.70;;;2.13;;
78916;SDS011;68315;48.608;11.436;2023-12-20T03:16:00;2.33;;;2.03;;
78916;SDS011;68315;48.608;11.436;2023-12-20T03:18:25;2.90;;;2.25;;
78916;SDS011;68315;48.608;11.436;2023-12-20T03:20:52;2.53;;;2.10;;
78916;SDS011;68315;48.608;11.436;2023-12-20T03:23:18;1.80;;;1.70;;
78916;SDS011;68315;48.608;11.436;2023-12-20T03:25:43;3.00;;;2.00;;
78916;SDS011;68315;48.608;11.436;2023-12-20T03:28:08;3.33;;;2.00;;
78916;SDS011;68315;48.608;11.436;2023-12-20T03:30:33;4.68;;;2.00;;
78916;SDS011;68315;48.608;11.436;2023-12-20T03:32:59;2.33;;;1.92;;
78916;SDS011;68315;48.608;11.436;2023-12-20T03:35:24;3.45;;;2.25;;
78916;SDS011;68315;48.608;11.436;2023-12-20T03:37:49;6.38;;;2.22;;
78916;SDS011;68315;48.608;11.436;2023-12-20T03:40:14;2.05;;;1.75;;
78916;SDS011;68315;48.608;11.436;2023-12-20T03:42:40;2.55;;;2.00;;
78916;SDS011;68315;48.608;11.436;2023-12-20T03:45:05;4.68;;;2.30;;
78916;SDS011;68315;48.608;11.436;2023-12-20T03:47:31;3.72;;;2.00;;
78916;SDS011;68315;48.608;11.436;2023-12-20T03:49:56;5.35;;;2.33;;
78916;SDS011;68315;48.608;11.436;2023-12-20T03:52:21;2.85;;;2.20;;
78916;SDS011;68315;48.608;11.436;2023-12-20T03:54:47;2.28;;;2.08;;
78916;SDS011;68315;48.608;11.436;2023-12-20T03:57:12;2.95;;;2.30;;
78916;SDS011;68315;48.608;11.436;2023-12-20T03:59:37;4.93;;;2.30;;
78916;SDS011;68315;48.608;11.436;2023-12-20T04:02:03;2.70;;;2.20;;
78916;SDS011;68315;48.608;11.436;2023-12-20T04:04:28;3.03;;;2.40;;
78916;SDS011;68315;48.608;11.436;2023-12-20T04:06:53;4.00;;;2.20;;
78916;SDS011;68315;48.608;11.436;2023-12-20T04:09:19;4.03;;;2.47;;
78916;SDS011;68315;48.608;11.436;2023-12-20T04:11:44;2.55;;;2.35;;
78916;SDS011;68315;48.608;11.436;2023-12-20T04:14:09;3.60;;;2.40;;
78916;SDS011;68315;48.608;11.436;2023-12-20T04:16:35;4.03;;;2.50;;
78916;SDS011;68315;48.608;11.436;2023-12-20T04:19:00;3.67;;;2.28;;
78916;SDS011;68315;48.608;11.436;2023-12-20T04:21:26;3.97;;;2.95;;
78916;SDS011;68315;48.608;11.436;2023-12-20T04:23:51;3.10;;;2.75;;
78916;SDS011;68315;48.608;11.436;2023-12-20T04:26:16;2.92;;;2.47;;
78916;SDS011;68315;48.608;11.436;2023-12-20T04:28:41;2.67;;;2.40;;
78916;SDS011;68315;48.608;11.436;2023-12-20T04:31:07;3.67;;;2.85;;
78916;SDS011;68315;48.608;11.436;2023-12-20T04:33:32;6.82;;;4.05;;
78916;SDS011;68315;48.608;11.436;2023-12-20T04:35:57;4.53;;;3.65;;
78916;SDS011;68315;48.608;11.436;2023-12-20T04:38:22;5.40;;;3.92;;
78916;SDS011;68315;48.608;11.436;2023-12-20T04:40:48;5.57;;;3.75;;
78916;SDS011;68315;48.608;11.436;2023-12-20T04:43:13;4.35;;;3.28;;
78916;SDS011;68315;48.608;11.436;2023-12-20T04:45:38;13.43;;;10.38;;
78916;SDS011;68315;48.608;11.436;2023-12-20T04:48:03;3.95;;;3.28;;
78916;SDS011;68315;48.608;11.436;2023-12-20T04:50:29;5.88;;;3.28;;
78916;SDS011;68315;48.608;11.436;2023-12-20T04:52:54;4.45;;;3.13;;
78916;SDS011;68315;48.608;11.436;2023-12-20T04:55:20;3.47;;;3.03;;
78916;SDS011;68315;48.608;11.436;2023-12-20T04:57:45;5.10;;;3.38;;
78916;SDS011;68315;48.608;11.436;2023-12-20T05:00:10;4.28;;;3.20;;
78916;SDS011;68315;48.608;11.436;2023-12-20T05:02:37;3.88;;;3.28;;
78916;SDS011;68315;48.608;11.436;2023-12-20T05:05:02;3.72;;;3.00;;
78916;SDS011;68315;48.608;11.436;2023-12-20T05:07:27;3.95;;;3.20;;
78916;SDS011;68315;48.608;11.436;2023-12-20T05:09:53;5.20;;;3.40;;
78916;SDS011;68315;48.608;11.436;2023-12-20T05:12:18;4.20;;;3.15;;
78916;SDS011;68315;48.608;11.436;2023-12-20T05:14:43;4.93;;;3.28;;
78916;SDS011;68315;48.608;11.436;2023-12-20T05:17:09;3.50;;;3.13;;
78916;SDS011;68315;48.608;11.436;2023-12-20T05:19:34;4.90;;;3.92;;
78916;SDS011;68315;48.608;11.436;2023-12-20T05:22:00;3.75;;;2.80;;
78916;SDS011;68315;48.608;11.436;2023-12-20T05:24:26;3.65;;;2.80;;
78916;SDS011;68315;48.608;11.436;2023-12-20T05:26:52;3.15;;;2.70;;
78916;SDS011;68315;48.608;11.436;2023-12-20T05:29:17;3.05;;;2.75;;
78916;SDS011;68315;48.608;11.436;2023-12-20T05:31:42;3.85;;;2.97;;
78916;SDS011;68315;48.608;11.436;2023-12-20T05:34:07;3.00;;;2.45;;
78916;SDS011;68315;48.608;11.436;2023-12-20T05:36:33;3.35;;;2.50;;
78916;SDS011;68315;48.608;11.436;2023-12-20T05:39:01;4.18;;;3.78;;
78916;SDS011;68315;48.608;11.436;2023-12-20T05:41:28;4.90;;;2.88;;
78916;SDS011;68315;48.608;11.436;2023-12-20T05:43:53;3.92;;;2.75;;
78916;SDS011;68315;48.608;11.436;2023-12-20T05:46:18;5.53;;;2.60;;
78916;SDS011;68315;48.608;11.436;2023-12-20T05:48:44;4.65;;;2.88;;
78916;SDS011;68315;48.608;11.436;2023-12-20T05:51:11;3.65;;;2.63;;
78916;SDS011;68315;48.608;11.436;2023-12-20T05:53:36;3.30;;;2.90;;
78916;SDS011;68315;48.608;11.436;2023-12-20T05:56:01;4.50;;;3.13;;
78916;SDS011;68315;48.608;11.436;2023-12-20T05:58:27;3.35;;;3.00;;
78916;SDS011;68315;48.608;11.436;2023-12-20T06:00:52;3.97;;;3.33;;
78916;SDS011;68315;48.608;11.436;2023-12-20T06:03:17;3.58;;;2.70;;
78916;SDS011;68315;48.608;11.436;2023-12-20T06:05:42;3.85;;;3.10;;
78916;SDS011;68315;48.608;11.436;2023-12-20T06:08:08;4.80;;;3.05;;
78916;SDS011;68315;48.608;11.436;2023-12-20T06:10:33;3.45;;;2.63;;
78916;SDS011;68315;48.608;11.436;2023-12-20T06:12:58;3.38;;;2.85;;
78916;SDS011;68315;48.608;11.436;2023-12-20T06:15:25;4.85;;;3.00;;
78916;SDS011;68315;48.608;11.436;2023-12-20T06:17:50;3.65;;;2.65;;
78916;SDS011;68315;48.608;11.436;2023-12-20T06:20:16;3.38;;;2.55;;
78916;SDS011;68315;48.608;11.436;2023-12-20T06:22:41;3.30;;;2.75;;
78916;SDS011;68315;48.608;11.436;2023-12-20T06:25:06;4.45;;;2.97;;
78916;SDS011;68315;48.608;11.436;2023-12-20T06:27:32;3.85;;;2.83;;
78916;SDS011;68315;48.608;11.436;2023-12-20T06:29:57;3.47;;;3.03;;
78916;SDS011;68315;48.608;11.436;2023-12-20T06:32:22;11.18;;;6.75;;
78916;SDS011;68315;48.608;11.436;2023-12-20T06:34:48;3.60;;;2.60;;
78916;SDS011;68315;48.608;11.436;2023-12-20T06:37:14;2.85;;;2.45;;
78916;SDS011;68315;48.608;11.436;2023-12-20T06:39:40;2.88;;;2.40;;
78916;SDS011;68315;48.608;11.436;2023-12-20T06:42:05;3.30;;;2.97;;
78916;SDS011;68315;48.608;11.436;2023-12-20T06:44:30;4.50;;;2.85;;
78916;SDS011;68315;48.608;11.436;2023-12-20T06:46:56;3.50;;;2.95;;
78916;SDS011;68315;48.608;11.436;2023-12-20T06:49:21;3.20;;;2.83;;
78916;SDS011;68315;48.608;11.436;2023-12-20T06:51:47;3.22;;;2.65;;
78916;SDS011;68315;48.608;11.436;2023-12-20T06:54:12;3.33;;;2.85;;
78916;SDS011;68315;48.608;11.436;2023-12-20T06:56:37;4.20;;;2.92;;
78916;SDS011;68315;48.608;11.436;2023-12-20T06:59:02;4.40;;;3.20;;
78916;SDS011;68315;48.608;11.436;2023-12-20T07:01:28;4.07;;;3.20;;
78916;SDS011;68315;48.608;11.436;2023-12-20T07:03:53;3.58;;;3.28;;
78916;SDS011;68315;48.608;11.436;2023-12-20T07:06:18;4.05;;;3.30;;
78916;SDS011;68315;48.608;11.436;2023-12-20T07:08:44;3.28;;;2.97;;
78916;SDS011;68315;48.608;11.436;2023-12-20T07:11:09;4.10;;;3.13;;
78916;SDS011;68315;48.608;11.436;2023-12-20T07:13:35;4.70;;;3.60;;
78916;SDS011;68315;48.608;11.436;2023-12-20T07:16:00;4.03;;;3.63;;
78916;SDS011;68315;48.608;11.436;2023-12-20T07:18:25;4.43;;;3.50;;
78916;SDS011;68315;48.608;11.436;2023-12-20T07:20:50;3.47;;;3.17;;
78916;SDS011;68315;48.608;11.436;2023-12-20T07:23:15;4.13;;;3.72;;
78916;SDS011;68315;48.608;11.436;2023-12-20T07:25:41;3.47;;;3.03;;
78916;SDS011;68315;48.608;11.436;2023-12-20T07:28:06;3.92;;;3.30;;
78916;SDS011;68315;48.608;11.436;2023-12-20T07:30:31;4.93;;;3.83;;
78916;SDS011;68315;48.608;11.436;2023-12-20T07:32:57;4.18;;;3.50;;
78916;SDS011;68315;48.608;11.436;2023-12-20T07:35:23;4.10;;;3.70;;
78916;SDS011;68315;48.608;11.436;2023-12-20T07:37:48;3.53;;;3.13;;
78916;SDS011;68315;48.608;11.436;2023-12-20T07:40:14;3.40;;;3.10;;
78916;SDS011;68315;48.608;11.436;2023-12-20T07:42:41;4.57;;;3.13;;
78916;SDS011;68315;48.608;11.436;2023-12-20T07:45:07;3.78;;;3.22;;
78916;SDS011;68315;48.608;11.436;2023-12-20T07:47:32;3.40;;;2.90;;
78916;SDS011;68315;48.608;11.436;2023-12-20T07:49:57;3.78;;;3.38;;
78916;SDS011;68315;48.608;11.436;2023-12-20T07:52:23;4.00;;;3.20;;
78916;SDS011;68315;48.608;11.436;2023-12-20T07:54:48;3.35;;;2.67;;
78916;SDS011;68315;48.608;11.436;2023-12-20T07:57:13;3.38;;;3.08;;
78916;SDS011;68315;48.608;11.436;2023-12-20T07:59:38;3.08;;;2.78;;
78916;SDS011;68315;48.608;11.436;2023-12-20T08:02:04;3.35;;;2.97;;
78916;SDS011;68315;48.608;11.436;2023-12-20T08:04:29;3.28;;;2.90;;
78916;SDS011;68315;48.608;11.436;2023-12-20T08:06:54;2.95;;;2.75;;
78916;SDS011;68315;48.608;11.436;2023-12-20T08:09:20;2.90;;;2.60;;
78916;SDS011;68315;48.608;11.436;2023-12-20T08:11:46;3.40;;;2.90;;
78916;SDS011;68315;48.608;11.436;2023-12-20T08:14:15;3.70;;;2.80;;
78916;SDS011;68315;48.608;11.436;2023-12-20T08:16:40;3.33;;;2.80;;
78916;SDS011;68315;48.608;11.436;2023-12-20T08:19:05;3.20;;;2.70;;
78916;SDS011;68315;48.608;11.436;2023-12-20T08:21:31;4.65;;;3.00;;
78916;SDS011;68315;48.608;11.436;2023-12-20T08:23:56;3.30;;;2.88;;
78916;SDS011;68315;48.608;11.436;2023-12-20T08:26:21;3.10;;;2.70;;
78916;SDS011;68315;48.608;11.436;2023-12-20T08:28:50;4.28;;;3.75;;
78916;SDS011;68315;48.608;11.436;2023-12-20T08:31:15;3.95;;;3.08;;
78916;SDS011;68315;48.608;11.436;2023-12-20T08:33:42;3.35;;;2.50;;
78916;SDS011;68315;48.608;11.436;2023-12-20T08:36:12;3.72;;;2.55;;
78916;SDS011;68315;48.608;11.436;2023-12-20T08:38:38;2.60;;;2.38;;
78916;SDS011;68315;48.608;11.436;2023-12-20T08:41:03;2.95;;;2.65;;
78916;SDS011;68315;48.608;11.436;2023-12-20T08:43:30;3.10;;;2.33;;
78916;SDS011;68315;48.608;11.436;2023-12-20T08:46:05;3.03;;;2.33;;
78916;SDS011;68315;48.608;11.436;2023-12-20T08:48:30;2.78;;;2.47;;
78916;SDS011;68315;48.608;11.436;2023-12-20T08:50:55;2.78;;;2.33;;
78916;SDS011;68315;48.608;11.436;2023-12-20T08:53:21;3.17;;;2.50;;
78916;SDS011;68315;48.608;11.436;2023-12-20T08:55:46;2.78;;;2.05;;
78916;SDS011;68315;48.608;11.436;2023-12-20T08:58:11;4.07;;;2.20;;
78916;SDS011;68315;48.608;11.436;2023-12-20T09:00:37;3.05;;;2.45;;
78916;SDS011;68315;48.608;11.436;2023-12-20T09:03:03;2.35;;;2.15;;
78916;SDS011;68315;48.608;11.436;2023-12-20T09:05:29;2.78;;;2.25;;
78916;SDS011;68315;48.608;11.436;2023-12-20T09:07:55;2.40;;;2.20;;
78916;SDS011;68315;48.608;11.436;2023-12-20T09:10:20;6.10;;;2.58;;
78916;SDS011;68315;48.608;11.436;2023-12-20T09:12:53;2.33;;;2.22;;
78916;SDS011;68315;48.608;11.436;2023-12-20T09:15:25;2.72;;;2.53;;
78916;SDS011;68315;48.608;11.436;2023-12-20T09:17:51;3.50;;;2.47;;
78916;SDS011;68315;48.608;11.436;2023-12-20T09:20:17;3.13;;;2.60;;
78916;SDS011;68315;48.608;11.436;2023-12-20T09:22:42;3.90;;;2.85;;
78916;SDS011;68315;48.608;11.436;2023-12-20T09:25:09;4.60;;;3.60;;
78916;SDS011;68315;48.608;11.436;2023-12-20T09:27:35;6.38;;;4.88;;
78916;SDS011;68315;48.608;11.436;2023-12-20T09:30:00;5.97;;;5.00;;
78916;SDS011;68315;48.608;11.436;2023-12-20T09:32:25;6.75;;;5.47;;
78916;SDS011;68315;48.608;11.436;2023-12-20T09:34:51;6.25;;;5.50;;
78916;SDS011;68315;48.608;11.436;2023-12-20T09:37:16;6.72;;;4.88;;
78916;SDS011;68315;48.608;11.436;2023-12-20T09:39:41;8.23;;;5.75;;
78916;SDS011;68315;48.608;11.436;2023-12-20T09:42:06;6.43;;;5.75;;
78916;SDS011;68315;48.608;11.436;2023-12-20T09:44:32;6.45;;;5.10;;
78916;SDS011;68315;48.608;11.436;2023-12-20T09:47:04;5.15;;;4.65;;
78916;SDS011;68315;48.608;11.436;2023-12-20T09:49:30;5.22;;;4.72;;
78916;SDS011;68315;48.608;11.436;2023-12-20T09:51:56;4.68;;;4.18;;
78916;SDS011;68315;48.608;11.436;2023-12-20T09:54:22;4.80;;;4.40;;
78916;SDS011;68315;48.608;11.436;2023-12-20T09:56:48;4.75;;;3.53;;
78916;SDS011;68315;48.608;11.436;2023-12-20T09:59:14;5.35;;;3.30;;
78916;SDS011;68315;48.608;11.436;2023-12-20T10:01:40;2.75;;;2.53;;
78916;SDS011;68315;48.608;11.436;2023-12-20T10:04:06;2.53;;;2.30;;
78916;SDS011;68315;48.608;11.436;2023-12-20T10:06:34;2.70;;;2.50;;
78916;SDS011;68315;48.608;11.436;2023-12-20T10:09:11;2.63;;;2.05;;
78916;SDS011;68315;48.608;11.436;2023-12-20T10:11:37;3.08;;;2.15;;
78916;SDS011;68315;48.608;11.436;2023-12-20T10:14:03;2.58;;;2.38;;
78916;SDS011;68315;48.608;11.436;2023-12-20T10:16:29;2.50;;;2.20;;
78916;SDS011;68315;48.608;11.436;2023-12-20T10:18:55;1.90;;;1.80;;
78916;SDS011;68315;48.608;11.436;2023-12-20T10:21:24;2.20;;;2.00;;
78916;SDS011;68315;48.608;11.436;2023-12-20T10:23:51;6.18;;;2.25;;
78916;SDS011;68315;48.608;11.436;2023-12-20T10:26:20;2.30;;;2.08;;
78916;SDS011;68315;48.608;11.436;2023-12-20T10:28:46;2.20;;;2.00;;
78916;SDS011;68315;48.608;11.436;2023-12-20T10:31:28;2.75;;;2.30;;
78916;SDS011;68315;48.608;11.436;2023-12-20T10:33:55;2.28;;;2.08;;
78916;SDS011;68315;48.608;11.436;2023-12-20T10:36:23;2.92;;;2.00;;
78916;SDS011;68315;48.608;11.436;2023-12-20T10:38:51;2.00;;;1.90;;
78916;SDS011;68315;48.608;11.436;2023-12-20T10:41:18;2.50;;;2.30;;
78916;SDS011;68315;48.608;11.436;2023-12-20T10:43:51;2.45;;;2.25;;
78916;SDS011;68315;48.608;11.436;2023-12-20T10:46:16;1.88;;;1.77;;
78916;SDS011;68315;48.608;11.436;2023-12-20T10:48:44;3.70;;;2.08;;
78916;SDS011;68315;48.608;11.436;2023-12-20T10:51:10;1.92;;;1.83;;
78916;SDS011;68315;48.608;11.436;2023-12-20T10:53:36;2.30;;;1.95;;
78916;SDS011;68315;48.608;11.436;2023-12-20T10:56:02;1.98;;;1.77;;
78916;SDS011;68315;48.608;11.436;2023-12-20T10:58:27;2.15;;;2.00;;
78916;SDS011;68315;48.608;11.436;2023-12-20T11:00:57;2.28;;;2.08;;
78916;SDS011;68315;48.608;11.436;2023-12-20T11:03:25;2.72;;;2.15;;
78916;SDS011;68315;48.608;11.436;2023-12-20T11:06:03;2.63;;;1.95;;
78916;SDS011;68315;48.608;11.436;2023-12-20T11:08:44;4.35;;;2.30;;
78916;SDS011;68315;48.608;11.436;2023-12-20T11:11:37;2.47;;;2.28;;
78916;SDS011;68315;48.608;11.436;2023-12-20T11:14:11;2.22;;;2.03;;
78916;SDS011;68315;48.608;11.436;2023-12-20T11:16:42;3.30;;;2.20;;
78916;SDS011;68315;48.608;11.436;2023-12-20T11:19:07;2.67;;;2.30;;
78916;SDS011;68315;48.608;11.436;2023-12-20T11:21:32;2.60;;;2.30;;
78916;SDS011;68315;48.608;11.436;2023-12-20T11:23:58;2.50;;;2.30;;
78916;SDS011;68315;48.608;11.436;2023-12-20T11:26:27;2.38;;;2.17;;
78916;SDS011;68315;48.608;11.436;2023-12-20T11:28:53;3.00;;;2.10;;
78916;SDS011;68315;48.608;11.436;2023-12-20T11:31:19;2.78;;;2.38;;
78916;SDS011;68315;48.608;11.436;2023-12-20T11:33:44;2.92;;;2.40;;
78916;SDS011;68315;48.608;11.436;2023-12-20T11:36:18;3.35;;;2.10;;
78916;SDS011;68315;48.608;11.436;2023-12-20T11:38:56;5.22;;;2.30;;
78916;SDS011;68315;48.608;11.436;2023-12-20T11:41:26;2.40;;;2.20;;
78916;SDS011;68315;48.608;11.436;2023-12-20T11:43:55;2.38;;;2.15;;
78916;SDS011;68315;48.608;11.436;2023-12-20T11:46:21;2.28;;;2.08;;
78916;SDS011;68315;48.608;11.436;2023-12-20T11:48:46;2.00;;;1.90;;
78916;SDS011;68315;48.608;11.436;2023-12-20T11:51:13;2.17;;;1.98;;
78916;SDS011;68315;48.608;11.436;2023-12-20T11:53:39;1.88;;;1.77;;
78916;SDS011;68315;48.608;11.436;2023-12-20T11:56:07;1.75;;;1.60;;
78916;SDS011;68315;48.608;11.436;2023-12-20T11:58:34;1.67;;;1.58;;
78916;SDS011;68315;48.608;11.436;2023-12-20T12:00:59;1.73;;;1.60;;
78916;SDS011;68315;48.608;11.436;2023-12-20T12:03:25;1.65;;;1.55;;
78916;SDS011;68315;48.608;11.436;2023-12-20T12:05:50;2.08;;;1.30;;
78916;SDS011;68315;48.608;11.436;2023-12-20T12:08:19;1.83;;;1.60;;
78916;SDS011;68315;48.608;11.436;2023-12-20T12:10:44;1.40;;;1.30;;
78916;SDS011;68315;48.608;11.436;2023-12-20T12:13:10;1.38;;;1.27;;
78916;SDS011;68315;48.608;11.436;2023-12-20T12:15:36;1.42;;;1.33;;
78916;SDS011;68315;48.608;11.436;2023-12-20T12:18:01;1.90;;;1.40;;
78916;SDS011;68315;48.608;11.436;2023-12-20T12:20:27;2.53;;;1.27;;
78916;SDS011;68315;48.608;11.436;2023-12-20T12:23:02;1.70;;;1.40;;
78916;SDS011;68315;48.608;11.436;2023-12-20T12:25:29;1.70;;;1.60;;
78916;SDS011;68315;48.608;11.436;2023-12-20T12:27:56;1.58;;;1.48;;
78916;SDS011;68315;48.608;11.436;2023-12-20T12:30:22;1.50;;;1.40;;
78916;SDS011;68315;48.608;11.436;2023-12-20T12:32:48;3.00;;;2.08;;
78916;SDS011;68315;48.608;11.436;2023-12-20T12:35:13;2.03;;;1.50;;
78916;SDS011;68315;48.608;11.436;2023-12-20T12:37:39;4.22;;;2.33;;
78916;SDS011;68315;48.608;11.436;2023-12-20T12:40:15;3.42;;;1.98;;
78916;SDS011;68315;48.608;11.436;2023-12-20T12:45:07;2.65;;;1.33;;
78916;SDS011;68315;48.608;11.436;2023-12-20T12:47:36;2.80;;;1.40;;
78916;SDS011;68315;48.608;11.436;2023-12-20T12:50:01;4.57;;;1.90;;
78916;SDS011;68315;48.608;11.436;2023-12-20T12:52:26;5.88;;;1.58;;
78916;SDS011;68315;48.608;11.436;2023-12-20T12:54:52;3.70;;;1.60;;
78916;SDS011;68315;48.608;11.436;2023-12-20T12:57:17;4.55;;;1.67;;
78916;SDS011;68315;48.608;11.436;2023-12-20T12:59:43;8.93;;;2.03;;
78916;SDS011;68315;48.608;11.436;2023-12-20T13:02:11;3.83;;;1.83;;
78916;SDS011;68315;48.608;11.436;2023-12-20T13:04:40;5.53;;;1.70;;
78916;SDS011;68315;48.608;11.436;2023-12-20T13:07:06;4.20;;;1.77;;
78916;SDS011;68315;48.608;11.436;2023-12-20T13:09:32;5.53;;;1.88;;
78916;SDS011;68315;48.608;11.436;2023-12-20T13:11:57;3.00;;;1.60;;
78916;SDS011;68315;48.608;11.436;2023-12-20T13:14:22;3.72;;;1.60;;
78916;SDS011;68315;48.608;11.436;2023-12-20T13:16:47;2.40;;;1.50;;
78916;SDS011;68315;48.608;11.436;2023-12-20T13:19:13;2.85;;;1.83;;
78916;SDS011;68315;48.608;11.436;2023-12-20T13:21:38;4.05;;;2.08;;
78916;SDS011;68315;48.608;11.436;2023-12-20T13:24:04;2.88;;;1.90;;
78916;SDS011;68315;48.608;11.436;2023-12-20T13:26:30;4.25;;;1.40;;
78916;SDS011;68315;48.608;11.436;2023-12-20T13:28:55;3.13;;;1.23;;
78916;SDS011;68315;48.608;11.436;2023-12-20T13:31:20;3.15;;;1.23;;
78916;SDS011;68315;48.608;11.436;2023-12-20T13:33:46;4.38;;;1.55;;
78916;SDS011;68315;48.608;11.436;2023-12-20T13:36:11;3.45;;;1.30;;
78916;SDS011;68315;48.608;11.436;2023-12-20T13:38:37;3.50;;;1.42;;
78916;SDS011;68315;48.608;11.436;2023-12-20T13:41:02;3.70;;;1.30;;
78916;SDS011;68315;48.608;11.436;2023-12-20T13:43:28;4.53;;;1.40;;
78916;SDS011;68315;48.608;11.436;2023-12-20T13:45:53;1.40;;;1.30;;
78916;SDS011;68315;48.608;11.436;2023-12-20T13:48:18;3.00;;;1.30;;
78916;SDS011;68315;48.608;11.436;2023-12-20T13:50:44;5.40;;;1.40;;
78916;SDS011;68315;48.608;11.436;2023-12-20T13:53:09;5.45;;;1.35;;
78916;SDS011;68315;48.608;11.436;2023-12-20T13:55:34;4.65;;;1.70;;
78916;SDS011;68315;48.608;11.436;2023-12-20T13:57:59;4.22;;;1.35;;
78916;SDS011;68315;48.608;11.436;2023-12-20T14:00:25;4.40;;;1.42;;
78916;SDS011;68315;48.608;11.436;2023-12-20T14:02:50;4.78;;;1.67;;
78916;SDS011;68315;48.608;11.436;2023-12-20T14:05:16;3.05;;;1.42;;
78916;SDS011;68315;48.608;11.436;2023-12-20T14:07:42;3.35;;;1.50;;
78916;SDS011;68315;48.608;11.436;2023-12-20T14:10:09;5.20;;;1.30;;
78916;SDS011;68315;48.608;11.436;2023-12-20T14:12:36;3.88;;;1.60;;
78916;SDS011;68315;48.608;11.436;2023-12-20T14:15:02;3.75;;;1.30;;
78916;SDS011;68315;48.608;11.436;2023-12-20T14:17:28;2.63;;;1.33;;
78916;SDS011;68315;48.608;11.436;2023-12-20T14:19:54;3.88;;;1.48;;
78916;SDS011;68315;48.608;11.436;2023-12-20T14:22:19;6.38;;;1.75;;
78916;SDS011;68315;48.608;11.436;2023-12-20T14:24:45;3.90;;;1.60;;
78916;SDS011;68315;48.608;11.436;2023-12-20T14:27:10;1.77;;;1.27;;
78916;SDS011;68315;48.608;11.436;2023-12-20T14:29:36;3.83;;;1.70;;